Terminal Aerodrome Forecast
Issued by NWS Shreveport, LA

Home | Current Version | Previous Version | Text Only | Print | Product List | Glossary On
Versions: 1 2 3 4 5 6 7 8 9 10 11 12 13 14 15 16 17 18 19 20 21 22
000
FTUS44 KSHV 200500
TAFTXK
TAF
KTXK 200526Z 2006/2106 VRB03KT 1SM BR SKC
      TEMPO 2006/2009 4SM BR
     FM201300 VRB05KT P6SM FEW050
     FM210100 00000KT P6SM SKC=

USA.gov is the U.S. government's official web portal to all federal, state and local government web resources and services.